sensor_id;sensor_type;location;lat;lon;timestamp;temperature;humidity
42085;DHT22;27746;52.228;20.890;2022-12-24T00:01:04;6.30;99.90
42085;DHT22;27746;52.228;20.890;2022-12-24T00:03:31;6.30;99.90
42085;DHT22;27746;52.228;20.890;2022-12-24T00:05:58;6.30;99.90
42085;DHT22;27746;52.228;20.890;2022-12-24T00:08:25;6.30;99.90
42085;DHT22;27746;52.228;20.890;2022-12-24T00:10:52;6.30;99.90
42085;DHT22;27746;52.228;20.890;2022-12-24T00:13:19;6.30;99.90
42085;DHT22;27746;52.228;20.890;2022-12-24T00:15:48;6.30;99.90
42085;DHT22;27746;52.228;20.890;2022-12-24T00:18:15;6.40;99.90
42085;DHT22;27746;52.228;20.890;2022-12-24T00:20:45;6.40;99.90
42085;DHT22;27746;52.228;20.890;2022-12-24T00:23:12;6.40;99.90
42085;DHT22;27746;52.228;20.890;2022-12-24T00:25:39;6.40;99.90
42085;DHT22;27746;52.228;20.890;2022-12-24T00:28:06;6.40;99.90
42085;DHT22;27746;52.228;20.890;2022-12-24T00:30:33;6.40;99.90
42085;DHT22;27746;52.228;20.890;2022-12-24T00:33:01;6.40;99.90
42085;DHT22;27746;52.228;20.890;2022-12-24T00:35:28;6.40;99.90
42085;DHT22;27746;52.228;20.890;2022-12-24T00:37:55;6.40;99.90
42085;DHT22;27746;52.228;20.890;2022-12-24T00:40:22;6.40;99.90
42085;DHT22;27746;52.228;20.890;2022-12-24T00:42:49;6.30;99.90
42085;DHT22;27746;52.228;20.890;2022-12-24T00:45:16;6.30;99.90
42085;DHT22;27746;52.228;20.890;2022-12-24T00:47:43;6.30;99.90
42085;DHT22;27746;52.228;20.890;2022-12-24T00:50:11;6.40;99.90
42085;DHT22;27746;52.228;20.890;2022-12-24T00:52:38;6.30;99.90
42085;DHT22;27746;52.228;20.890;2022-12-24T00:55:05;6.30;99.90
42085;DHT22;27746;52.228;20.890;2022-12-24T00:57:32;6.30;99.90
42085;DHT22;27746;52.228;20.890;2022-12-24T00:59:59;6.40;99.90
42085;DHT22;27746;52.228;20.890;2022-12-24T01:02:26;6.30;99.90
42085;DHT22;27746;52.228;20.890;2022-12-24T01:04:53;6.30;99.90
42085;DHT22;27746;52.228;20.890;2022-12-24T01:07:40;6.30;99.90
42085;DHT22;27746;52.228;20.890;2022-12-24T01:10:09;6.20;99.90
42085;DHT22;27746;52.228;20.890;2022-12-24T01:12:37;6.20;99.90
42085;DHT22;27746;52.228;20.890;2022-12-24T01:15:05;6.20;99.90
42085;DHT22;27746;52.228;20.890;2022-12-24T01:17:32;6.20;99.90
42085;DHT22;27746;52.228;20.890;2022-12-24T01:19:59;6.20;99.90
42085;DHT22;27746;52.228;20.890;2022-12-24T01:22:26;6.20;99.90
42085;DHT22;27746;52.228;20.890;2022-12-24T01:24:55;6.20;99.90
42085;DHT22;27746;52.228;20.890;2022-12-24T01:27:22;6.20;99.90
42085;DHT22;27746;52.228;20.890;2022-12-24T01:29:49;6.20;99.90
42085;DHT22;27746;52.228;20.890;2022-12-24T01:32:16;6.20;99.90
42085;DHT22;27746;52.228;20.890;2022-12-24T01:34:43;6.20;99.90
42085;DHT22;27746;52.228;20.890;2022-12-24T01:37:22;6.30;99.90
42085;DHT22;27746;52.228;20.890;2022-12-24T01:39:49;6.30;99.90
42085;DHT22;27746;52.228;20.890;2022-12-24T01:42:18;6.40;99.90
42085;DHT22;27746;52.228;20.890;2022-12-24T01:45:50;6.30;99.90
42085;DHT22;27746;52.228;20.890;2022-12-24T01:48:34;6.40;99.90
42085;DHT22;27746;52.228;20.890;2022-12-24T01:51:03;6.40;99.90
42085;DHT22;27746;52.228;20.890;2022-12-24T01:53:34;6.30;99.90
42085;DHT22;27746;52.228;20.890;2022-12-24T01:56:03;6.40;99.90
42085;DHT22;27746;52.228;20.890;2022-12-24T01:58:31;6.40;99.90
42085;DHT22;27746;52.228;20.890;2022-12-24T02:01:00;6.40;99.90
42085;DHT22;27746;52.228;20.890;2022-12-24T02:03:27;6.40;99.90
42085;DHT22;27746;52.228;20.890;2022-12-24T02:05:56;6.40;99.90
42085;DHT22;27746;52.228;20.890;2022-12-24T02:08:25;6.40;99.90
42085;DHT22;27746;52.228;20.890;2022-12-24T02:11:10;6.40;99.90
42085;DHT22;27746;52.228;20.890;2022-12-24T02:13:37;6.50;99.90
42085;DHT22;27746;52.228;20.890;2022-12-24T02:16:13;6.50;99.90
42085;DHT22;27746;52.228;20.890;2022-12-24T02:18:46;6.50;99.90
42085;DHT22;27746;52.228;20.890;2022-12-24T02:27:16;6.40;99.90
42085;DHT22;27746;52.228;20.890;2022-12-24T02:30:07;6.40;99.90
42085;DHT22;27746;52.228;20.890;2022-12-24T02:35:32;6.40;99.90
42085;DHT22;27746;52.228;20.890;2022-12-24T02:38:04;6.40;99.90
42085;DHT22;27746;52.228;20.890;2022-12-24T02:40:38;6.40;99.90
42085;DHT22;27746;52.228;20.890;2022-12-24T02:43:10;6.30;99.90
42085;DHT22;27746;52.228;20.890;2022-12-24T02:45:42;6.30;99.90
42085;DHT22;27746;52.228;20.890;2022-12-24T02:48:12;6.20;99.90
42085;DHT22;27746;52.228;20.890;2022-12-24T02:50:57;6.20;99.90
42085;DHT22;27746;52.228;20.890;2022-12-24T02:53:24;6.20;99.90
42085;DHT22;27746;52.228;20.890;2022-12-24T02:58:51;6.20;99.90
42085;DHT22;27746;52.228;20.890;2022-12-24T03:01:30;6.10;99.90
42085;DHT22;27746;52.228;20.890;2022-12-24T03:04:07;6.10;99.90
42085;DHT22;27746;52.228;20.890;2022-12-24T03:06:42;6.10;99.90
42085;DHT22;27746;52.228;20.890;2022-12-24T03:09:16;6.10;99.90
42085;DHT22;27746;52.228;20.890;2022-12-24T03:11:49;6.10;99.90
42085;DHT22;27746;52.228;20.890;2022-12-24T03:14:20;6.10;99.90
42085;DHT22;27746;52.228;20.890;2022-12-24T03:16:49;6.00;99.90
42085;DHT22;27746;52.228;20.890;2022-12-24T03:19:17;6.10;99.90
42085;DHT22;27746;52.228;20.890;2022-12-24T03:21:46;6.10;99.90
42085;DHT22;27746;52.228;20.890;2022-12-24T03:24:14;6.10;99.90
42085;DHT22;27746;52.228;20.890;2022-12-24T03:26:41;6.00;99.90
42085;DHT22;27746;52.228;20.890;2022-12-24T03:29:10;6.00;99.90
42085;DHT22;27746;52.228;20.890;2022-12-24T03:31:42;6.00;99.90
42085;DHT22;27746;52.228;20.890;2022-12-24T03:34:11;6.00;99.90
42085;DHT22;27746;52.228;20.890;2022-12-24T03:36:39;5.90;99.90
42085;DHT22;27746;52.228;20.890;2022-12-24T03:39:06;5.90;99.90
42085;DHT22;27746;52.228;20.890;2022-12-24T03:41:33;5.90;99.90
42085;DHT22;27746;52.228;20.890;2022-12-24T03:44:01;5.90;99.90
42085;DHT22;27746;52.228;20.890;2022-12-24T03:46:29;5.90;99.90
42085;DHT22;27746;52.228;20.890;2022-12-24T03:48:57;5.90;99.90
42085;DHT22;27746;52.228;20.890;2022-12-24T03:51:25;5.90;99.90
42085;DHT22;27746;52.228;20.890;2022-12-24T03:53:54;5.90;99.90
42085;DHT22;27746;52.228;20.890;2022-12-24T03:56:22;5.80;99.90
42085;DHT22;27746;52.228;20.890;2022-12-24T03:58:49;5.80;99.90
42085;DHT22;27746;52.228;20.890;2022-12-24T04:01:17;5.80;99.90
42085;DHT22;27746;52.228;20.890;2022-12-24T04:03:44;5.80;99.90
42085;DHT22;27746;52.228;20.890;2022-12-24T04:06:12;5.80;99.90
42085;DHT22;27746;52.228;20.890;2022-12-24T04:08:41;5.80;99.90
42085;DHT22;27746;52.228;20.890;2022-12-24T04:11:09;5.80;99.90
42085;DHT22;27746;52.228;20.890;2022-12-24T04:13:37;5.80;99.90
42085;DHT22;27746;52.228;20.890;2022-12-24T04:16:05;5.80;99.90
42085;DHT22;27746;52.228;20.890;2022-12-24T04:18:33;5.80;99.90
42085;DHT22;27746;52.228;20.890;2022-12-24T04:21:00;5.70;99.90
42085;DHT22;27746;52.228;20.890;2022-12-24T04:23:29;5.80;99.90
42085;DHT22;27746;52.228;20.890;2022-12-24T04:25:59;5.70;99.90
42085;DHT22;27746;52.228;20.890;2022-12-24T04:28:27;5.70;99.90
42085;DHT22;27746;52.228;20.890;2022-12-24T04:30:57;5.70;99.90
42085;DHT22;27746;52.228;20.890;2022-12-24T04:33:24;5.70;99.90
42085;DHT22;27746;52.228;20.890;2022-12-24T04:35:51;5.70;99.90
42085;DHT22;27746;52.228;20.890;2022-12-24T04:38:18;5.70;99.90
42085;DHT22;27746;52.228;20.890;2022-12-24T04:40:45;5.70;99.90
42085;DHT22;27746;52.228;20.890;2022-12-24T04:43:13;5.70;99.90
42085;DHT22;27746;52.228;20.890;2022-12-24T04:45:40;5.70;99.90
42085;DHT22;27746;52.228;20.890;2022-12-24T04:48:07;5.70;99.90
42085;DHT22;27746;52.228;20.890;2022-12-24T04:50:34;5.70;99.90
42085;DHT22;27746;52.228;20.890;2022-12-24T04:53:01;5.60;99.90
42085;DHT22;27746;52.228;20.890;2022-12-24T04:55:28;5.60;99.90
42085;DHT22;27746;52.228;20.890;2022-12-24T04:57:55;5.60;99.90
42085;DHT22;27746;52.228;20.890;2022-12-24T05:00:23;5.60;99.90
42085;DHT22;27746;52.228;20.890;2022-12-24T05:02:50;5.60;99.90
42085;DHT22;27746;52.228;20.890;2022-12-24T05:05:17;5.60;99.90
42085;DHT22;27746;52.228;20.890;2022-12-24T05:07:44;5.60;99.90
42085;DHT22;27746;52.228;20.890;2022-12-24T05:10:11;5.60;99.90
42085;DHT22;27746;52.228;20.890;2022-12-24T05:12:37;5.60;99.90
42085;DHT22;27746;52.228;20.890;2022-12-24T05:15:05;5.60;99.90
42085;DHT22;27746;52.228;20.890;2022-12-24T05:17:33;5.60;99.90
42085;DHT22;27746;52.228;20.890;2022-12-24T05:20:00;5.60;99.90
42085;DHT22;27746;52.228;20.890;2022-12-24T05:22:27;5.60;99.90
42085;DHT22;27746;52.228;20.890;2022-12-24T05:25:12;5.50;99.90
42085;DHT22;27746;52.228;20.890;2022-12-24T05:27:56;5.50;99.90
42085;DHT22;27746;52.228;20.890;2022-12-24T05:30:23;5.50;99.90
42085;DHT22;27746;52.228;20.890;2022-12-24T05:32:51;5.50;99.90
42085;DHT22;27746;52.228;20.890;2022-12-24T05:35:18;5.50;99.90
42085;DHT22;27746;52.228;20.890;2022-12-24T05:37:45;5.50;99.90
42085;DHT22;27746;52.228;20.890;2022-12-24T05:40:12;5.50;99.90
42085;DHT22;27746;52.228;20.890;2022-12-24T05:42:39;5.50;99.90
42085;DHT22;27746;52.228;20.890;2022-12-24T05:45:07;5.40;99.90
42085;DHT22;27746;52.228;20.890;2022-12-24T05:47:34;5.50;99.90
42085;DHT22;27746;52.228;20.890;2022-12-24T05:50:03;5.50;99.90
42085;DHT22;27746;52.228;20.890;2022-12-24T05:52:30;5.50;99.90
42085;DHT22;27746;52.228;20.890;2022-12-24T05:54:57;5.40;99.90
42085;DHT22;27746;52.228;20.890;2022-12-24T05:57:24;5.50;99.90
42085;DHT22;27746;52.228;20.890;2022-12-24T05:59:50;5.40;99.90
42085;DHT22;27746;52.228;20.890;2022-12-24T06:02:17;5.40;99.90
42085;DHT22;27746;52.228;20.890;2022-12-24T06:04:44;5.40;99.90
42085;DHT22;27746;52.228;20.890;2022-12-24T06:07:12;5.40;99.90
42085;DHT22;27746;52.228;20.890;2022-12-24T06:09:39;5.40;99.90
42085;DHT22;27746;52.228;20.890;2022-12-24T06:12:06;5.30;99.90
42085;DHT22;27746;52.228;20.890;2022-12-24T06:14:33;5.40;99.90
42085;DHT22;27746;52.228;20.890;2022-12-24T06:17:00;5.40;99.90
42085;DHT22;27746;52.228;20.890;2022-12-24T06:19:29;5.30;99.90
42085;DHT22;27746;52.228;20.890;2022-12-24T06:21:56;5.40;99.90
42085;DHT22;27746;52.228;20.890;2022-12-24T06:24:25;5.30;99.90
42085;DHT22;27746;52.228;20.890;2022-12-24T06:26:51;5.40;99.90
42085;DHT22;27746;52.228;20.890;2022-12-24T06:29:18;5.30;99.90
42085;DHT22;27746;52.228;20.890;2022-12-24T06:31:45;5.30;99.90
42085;DHT22;27746;52.228;20.890;2022-12-24T06:34:12;5.40;99.90
42085;DHT22;27746;52.228;20.890;2022-12-24T06:36:39;5.40;99.90
42085;DHT22;27746;52.228;20.890;2022-12-24T06:39:06;5.40;99.90
42085;DHT22;27746;52.228;20.890;2022-12-24T06:41:34;5.30;99.90
42085;DHT22;27746;52.228;20.890;2022-12-24T06:44:01;5.40;99.90
42085;DHT22;27746;52.228;20.890;2022-12-24T06:46:28;5.40;99.90
42085;DHT22;27746;52.228;20.890;2022-12-24T06:48:55;5.40;99.90
42085;DHT22;27746;52.228;20.890;2022-12-24T06:51:22;5.40;99.90
42085;DHT22;27746;52.228;20.890;2022-12-24T06:53:49;5.30;99.90
42085;DHT22;27746;52.228;20.890;2022-12-24T06:56:17;5.30;99.90
42085;DHT22;27746;52.228;20.890;2022-12-24T06:58:45;5.30;99.90
42085;DHT22;27746;52.228;20.890;2022-12-24T07:01:15;5.30;99.90
42085;DHT22;27746;52.228;20.890;2022-12-24T07:03:43;5.30;99.90
42085;DHT22;27746;52.228;20.890;2022-12-24T07:06:15;5.30;99.90
42085;DHT22;27746;52.228;20.890;2022-12-24T07:08:43;5.30;99.90
42085;DHT22;27746;52.228;20.890;2022-12-24T07:11:10;5.30;99.90
42085;DHT22;27746;52.228;20.890;2022-12-24T07:13:37;5.40;99.90
42085;DHT22;27746;52.228;20.890;2022-12-24T07:16:06;5.40;99.90
42085;DHT22;27746;52.228;20.890;2022-12-24T07:18:33;5.40;99.90
42085;DHT22;27746;52.228;20.890;2022-12-24T07:21:01;5.30;99.90
42085;DHT22;27746;52.228;20.890;2022-12-24T07:23:29;5.30;99.90
42085;DHT22;27746;52.228;20.890;2022-12-24T07:25:59;5.30;99.90
42085;DHT22;27746;52.228;20.890;2022-12-24T07:28:27;5.30;99.90
42085;DHT22;27746;52.228;20.890;2022-12-24T07:30:54;5.30;99.90
42085;DHT22;27746;52.228;20.890;2022-12-24T07:33:22;5.30;99.90
42085;DHT22;27746;52.228;20.890;2022-12-24T07:35:57;5.30;99.90
42085;DHT22;27746;52.228;20.890;2022-12-24T07:38:23;5.30;99.90
42085;DHT22;27746;52.228;20.890;2022-12-24T07:40:50;5.20;99.90
42085;DHT22;27746;52.228;20.890;2022-12-24T07:43:17;5.30;99.90
42085;DHT22;27746;52.228;20.890;2022-12-24T07:45:44;5.30;99.90
42085;DHT22;27746;52.228;20.890;2022-12-24T07:48:11;5.30;99.90
42085;DHT22;27746;52.228;20.890;2022-12-24T07:50:39;5.30;99.90
42085;DHT22;27746;52.228;20.890;2022-12-24T07:53:06;5.30;99.90
42085;DHT22;27746;52.228;20.890;2022-12-24T07:55:34;5.30;99.90
42085;DHT22;27746;52.228;20.890;2022-12-24T07:58:01;5.30;99.90
42085;DHT22;27746;52.228;20.890;2022-12-24T08:00:27;5.30;99.90
42085;DHT22;27746;52.228;20.890;2022-12-24T08:02:54;5.30;99.90
42085;DHT22;27746;52.228;20.890;2022-12-24T08:05:23;5.30;99.90
42085;DHT22;27746;52.228;20.890;2022-12-24T08:07:51;5.20;99.90
42085;DHT22;27746;52.228;20.890;2022-12-24T08:10:18;5.30;99.90
42085;DHT22;27746;52.228;20.890;2022-12-24T08:12:45;5.20;99.90
42085;DHT22;27746;52.228;20.890;2022-12-24T08:15:13;5.20;99.90
42085;DHT22;27746;52.228;20.890;2022-12-24T08:17:40;5.20;99.90
42085;DHT22;27746;52.228;20.890;2022-12-24T08:20:08;5.20;99.90
42085;DHT22;27746;52.228;20.890;2022-12-24T08:22:35;5.20;99.90
42085;DHT22;27746;52.228;20.890;2022-12-24T08:25:05;5.20;99.90
42085;DHT22;27746;52.228;20.890;2022-12-24T08:27:32;5.20;99.90
42085;DHT22;27746;52.228;20.890;2022-12-24T08:29:59;5.20;99.90
42085;DHT22;27746;52.228;20.890;2022-12-24T08:32:26;5.30;99.90
42085;DHT22;27746;52.228;20.890;2022-12-24T08:34:53;5.20;99.90
42085;DHT22;27746;52.228;20.890;2022-12-24T08:37:20;5.20;99.90
42085;DHT22;27746;52.228;20.890;2022-12-24T08:39:47;5.20;99.90
42085;DHT22;27746;52.228;20.890;2022-12-24T08:42:15;5.20;99.90
42085;DHT22;27746;52.228;20.890;2022-12-24T08:44:42;5.20;99.90
42085;DHT22;27746;52.228;20.890;2022-12-24T08:47:09;5.20;99.90
42085;DHT22;27746;52.228;20.890;2022-12-24T08:49:36;5.20;99.90
42085;DHT22;27746;52.228;20.890;2022-12-24T08:52:04;5.20;99.90
42085;DHT22;27746;52.228;20.890;2022-12-24T08:54:31;5.20;99.90
42085;DHT22;27746;52.228;20.890;2022-12-24T08:56:59;5.20;99.90
42085;DHT22;27746;52.228;20.890;2022-12-24T08:59:28;5.20;99.90
42085;DHT22;27746;52.228;20.890;2022-12-24T09:01:54;5.30;99.90
42085;DHT22;27746;52.228;20.890;2022-12-24T09:04:21;5.20;99.90
42085;DHT22;27746;52.228;20.890;2022-12-24T09:06:48;5.30;99.90
42085;DHT22;27746;52.228;20.890;2022-12-24T09:09:15;5.30;99.90
42085;DHT22;27746;52.228;20.890;2022-12-24T09:11:42;5.30;99.90
42085;DHT22;27746;52.228;20.890;2022-12-24T09:14:09;5.30;99.90
42085;DHT22;27746;52.228;20.890;2022-12-24T09:16:38;5.30;99.90
42085;DHT22;27746;52.228;20.890;2022-12-24T09:19:05;5.30;99.90
42085;DHT22;27746;52.228;20.890;2022-12-24T09:21:32;5.30;99.90
42085;DHT22;27746;52.228;20.890;2022-12-24T09:23:59;5.30;99.90
42085;DHT22;27746;52.228;20.890;2022-12-24T09:26:27;5.30;99.90
42085;DHT22;27746;52.228;20.890;2022-12-24T09:28:57;5.30;99.90
42085;DHT22;27746;52.228;20.890;2022-12-24T09:31:26;5.40;99.90
42085;DHT22;27746;52.228;20.890;2022-12-24T09:33:55;5.30;99.90
42085;DHT22;27746;52.228;20.890;2022-12-24T09:36:22;5.40;99.90
42085;DHT22;27746;52.228;20.890;2022-12-24T09:38:49;5.30;99.90
42085;DHT22;27746;52.228;20.890;2022-12-24T09:41:33;5.30;99.90
42085;DHT22;27746;52.228;20.890;2022-12-24T09:44:17;5.30;99.90
42085;DHT22;27746;52.228;20.890;2022-12-24T09:46:47;5.40;99.90
42085;DHT22;27746;52.228;20.890;2022-12-24T09:49:20;5.40;99.90
42085;DHT22;27746;52.228;20.890;2022-12-24T09:51:50;5.40;99.90
42085;DHT22;27746;52.228;20.890;2022-12-24T09:54:22;5.40;99.90
42085;DHT22;27746;52.228;20.890;2022-12-24T09:56:51;5.40;99.90
42085;DHT22;27746;52.228;20.890;2022-12-24T09:59:22;5.40;99.90
42085;DHT22;27746;52.228;20.890;2022-12-24T10:01:52;5.40;99.90
42085;DHT22;27746;52.228;20.890;2022-12-24T10:04:27;5.40;99.90
42085;DHT22;27746;52.228;20.890;2022-12-24T10:07:02;5.40;99.90
42085;DHT22;27746;52.228;20.890;2022-12-24T10:09:37;5.50;99.90
42085;DHT22;27746;52.228;20.890;2022-12-24T10:12:10;5.50;99.90
42085;DHT22;27746;52.228;20.890;2022-12-24T10:14:52;5.50;99.90
42085;DHT22;27746;52.228;20.890;2022-12-24T10:17:35;5.50;99.90
42085;DHT22;27746;52.228;20.890;2022-12-24T10:20:22;5.50;99.90
42085;DHT22;27746;52.228;20.890;2022-12-24T10:22:55;5.50;99.90
42085;DHT22;27746;52.228;20.890;2022-12-24T10:25:29;5.50;99.90
42085;DHT22;27746;52.228;20.890;2022-12-24T10:28:00;5.50;99.90
42085;DHT22;27746;52.228;20.890;2022-12-24T10:30:28;5.50;99.90
42085;DHT22;27746;52.228;20.890;2022-12-24T10:32:55;5.50;99.90
42085;DHT22;27746;52.228;20.890;2022-12-24T10:35:26;5.50;99.90
42085;DHT22;27746;52.228;20.890;2022-12-24T10:37:54;5.50;99.90
42085;DHT22;27746;52.228;20.890;2022-12-24T10:40:29;5.50;99.90
42085;DHT22;27746;52.228;20.890;2022-12-24T10:42:57;5.50;99.90
42085;DHT22;27746;52.228;20.890;2022-12-24T10:45:28;5.50;99.90
42085;DHT22;27746;52.228;20.890;2022-12-24T10:48:02;5.50;99.90
42085;DHT22;27746;52.228;20.890;2022-12-24T10:50:34;5.50;99.90
42085;DHT22;27746;52.228;20.890;2022-12-24T10:53:20;5.50;99.90
42085;DHT22;27746;52.228;20.890;2022-12-24T10:55:48;5.50;99.90
42085;DHT22;27746;52.228;20.890;2022-12-24T10:58:18;5.50;99.90
42085;DHT22;27746;52.228;20.890;2022-12-24T11:00:49;5.50;99.90
42085;DHT22;27746;52.228;20.890;2022-12-24T11:03:22;5.50;99.90
42085;DHT22;27746;52.228;20.890;2022-12-24T11:06:02;5.50;99.90
42085;DHT22;27746;52.228;20.890;2022-12-24T11:08:29;5.60;99.90
42085;DHT22;27746;52.228;20.890;2022-12-24T11:11:00;5.60;99.90
42085;DHT22;27746;52.228;20.890;2022-12-24T11:13:29;5.60;99.90
42085;DHT22;27746;52.228;20.890;2022-12-24T11:16:03;5.50;99.90
42085;DHT22;27746;52.228;20.890;2022-12-24T11:18:32;5.60;99.90
42085;DHT22;27746;52.228;20.890;2022-12-24T11:21:02;5.60;99.90
42085;DHT22;27746;52.228;20.890;2022-12-24T11:23:30;5.50;99.90
42085;DHT22;27746;52.228;20.890;2022-12-24T11:25:57;5.50;99.90
42085;DHT22;27746;52.228;20.890;2022-12-24T11:28:26;5.50;99.90
42085;DHT22;27746;52.228;20.890;2022-12-24T11:30:56;5.50;99.90
42085;DHT22;27746;52.228;20.890;2022-12-24T11:33:24;5.50;99.90
42085;DHT22;27746;52.228;20.890;2022-12-24T11:35:55;5.40;99.90
42085;DHT22;27746;52.228;20.890;2022-12-24T11:38:24;5.40;99.90
42085;DHT22;27746;52.228;20.890;2022-12-24T11:41:12;5.40;99.90
42085;DHT22;27746;52.228;20.890;2022-12-24T11:43:42;5.50;99.90
42085;DHT22;27746;52.228;20.890;2022-12-24T11:46:21;5.40;99.90
42085;DHT22;27746;52.228;20.890;2022-12-24T11:49:16;5.40;99.90
42085;DHT22;27746;52.228;20.890;2022-12-24T11:52:10;5.40;99.90
42085;DHT22;27746;52.228;20.890;2022-12-24T11:54:47;5.40;99.90
42085;DHT22;27746;52.228;20.890;2022-12-24T11:57:19;5.40;99.90
42085;DHT22;27746;52.228;20.890;2022-12-24T11:59:49;5.40;99.90
42085;DHT22;27746;52.228;20.890;2022-12-24T12:02:19;5.40;99.90
42085;DHT22;27746;52.228;20.890;2022-12-24T12:04:50;5.40;99.90
42085;DHT22;27746;52.228;20.890;2022-12-24T12:07:22;5.40;99.90
42085;DHT22;27746;52.228;20.890;2022-12-24T12:09:56;5.50;99.90
42085;DHT22;27746;52.228;20.890;2022-12-24T12:12:27;5.40;99.90
42085;DHT22;27746;52.228;20.890;2022-12-24T12:14:59;5.40;99.90
42085;DHT22;27746;52.228;20.890;2022-12-24T12:17:32;5.40;99.90
42085;DHT22;27746;52.228;20.890;2022-12-24T12:20:04;5.40;99.90
42085;DHT22;27746;52.228;20.890;2022-12-24T12:22:43;5.40;99.90
42085;DHT22;27746;52.228;20.890;2022-12-24T12:25:19;5.40;99.90
42085;DHT22;27746;52.228;20.890;2022-12-24T12:27:51;5.40;99.90
42085;DHT22;27746;52.228;20.890;2022-12-24T12:30:21;5.40;99.90
42085;DHT22;27746;52.228;20.890;2022-12-24T12:32:52;5.40;99.90
42085;DHT22;27746;52.228;20.890;2022-12-24T12:35:24;5.40;99.90
42085;DHT22;27746;52.228;20.890;2022-12-24T12:37:59;5.50;99.90
42085;DHT22;27746;52.228;20.890;2022-12-24T12:40:42;5.50;99.90
42085;DHT22;27746;52.228;20.890;2022-12-24T12:43:22;5.50;99.90
42085;DHT22;27746;52.228;20.890;2022-12-24T12:45:59;5.50;99.90
42085;DHT22;27746;52.228;20.890;2022-12-24T12:48:48;5.50;99.90
42085;DHT22;27746;52.228;20.890;2022-12-24T12:51:23;5.50;99.90
42085;DHT22;27746;52.228;20.890;2022-12-24T12:54:05;5.50;99.90
42085;DHT22;27746;52.228;20.890;2022-12-24T12:56:36;5.50;99.90
42085;DHT22;27746;52.228;20.890;2022-12-24T12:59:10;5.50;99.90
42085;DHT22;27746;52.228;20.890;2022-12-24T13:01:44;5.50;99.90
42085;DHT22;27746;52.228;20.890;2022-12-24T13:04:40;5.50;99.90
42085;DHT22;27746;52.228;20.890;2022-12-24T13:07:42;5.50;99.90
42085;DHT22;27746;52.228;20.890;2022-12-24T13:10:36;5.50;99.90
42085;DHT22;27746;52.228;20.890;2022-12-24T13:16:29;5.50;99.90
42085;DHT22;27746;52.228;20.890;2022-12-24T13:19:08;5.50;99.90
42085;DHT22;27746;52.228;20.890;2022-12-24T13:21:42;5.50;99.90
42085;DHT22;27746;52.228;20.890;2022-12-24T13:24:15;5.50;99.90
42085;DHT22;27746;52.228;20.890;2022-12-24T13:27:02;5.50;99.90
42085;DHT22;27746;52.228;20.890;2022-12-24T13:29:40;5.50;99.90
42085;DHT22;27746;52.228;20.890;2022-12-24T13:32:38;5.50;99.90
42085;DHT22;27746;52.228;20.890;2022-12-24T13:35:25;5.50;99.90
42085;DHT22;27746;52.228;20.890;2022-12-24T13:37:52;5.50;99.90
42085;DHT22;27746;52.228;20.890;2022-12-24T13:40:23;5.50;99.90
42085;DHT22;27746;52.228;20.890;2022-12-24T13:42:57;5.50;99.90
42085;DHT22;27746;52.228;20.890;2022-12-24T13:45:44;5.50;99.90
42085;DHT22;27746;52.228;20.890;2022-12-24T13:48:28;5.50;99.90
42085;DHT22;27746;52.228;20.890;2022-12-24T13:50:57;5.50;99.90
42085;DHT22;27746;52.228;20.890;2022-12-24T13:53:27;5.50;99.90
42085;DHT22;27746;52.228;20.890;2022-12-24T13:56:07;5.50;99.90
42085;DHT22;27746;52.228;20.890;2022-12-24T13:58:37;5.40;99.90
42085;DHT22;27746;52.228;20.890;2022-12-24T14:01:09;5.50;99.90
42085;DHT22;27746;52.228;20.890;2022-12-24T14:03:40;5.50;99.90
42085;DHT22;27746;52.228;20.890;2022-12-24T14:06:11;5.50;99.90
42085;DHT22;27746;52.228;20.890;2022-12-24T14:08:41;5.50;99.90
42085;DHT22;27746;52.228;20.890;2022-12-24T14:11:11;5.40;99.90
42085;DHT22;27746;52.228;20.890;2022-12-24T14:14:23;5.50;99.90
42085;DHT22;27746;52.228;20.890;2022-12-24T14:16:54;5.50;99.90
42085;DHT22;27746;52.228;20.890;2022-12-24T14:19:24;5.50;99.90
42085;DHT22;27746;52.228;20.890;2022-12-24T14:22:02;5.40;99.90
42085;DHT22;27746;52.228;20.890;2022-12-24T14:24:32;5.40;99.90
42085;DHT22;27746;52.228;20.890;2022-12-24T14:27:07;5.40;99.90
42085;DHT22;27746;52.228;20.890;2022-12-24T14:29:45;5.40;99.90
42085;DHT22;27746;52.228;20.890;2022-12-24T14:32:16;5.40;99.90
42085;DHT22;27746;52.228;20.890;2022-12-24T14:34:43;5.30;99.90
42085;DHT22;27746;52.228;20.890;2022-12-24T14:37:11;5.30;99.90
42085;DHT22;27746;52.228;20.890;2022-12-24T14:39:42;5.30;99.90
42085;DHT22;27746;52.228;20.890;2022-12-24T14:42:28;5.30;99.90
42085;DHT22;27746;52.228;20.890;2022-12-24T14:45:04;5.30;99.90
42085;DHT22;27746;52.228;20.890;2022-12-24T14:47:39;5.20;99.90
42085;DHT22;27746;52.228;20.890;2022-12-24T14:53:12;5.20;99.90
42085;DHT22;27746;52.228;20.890;2022-12-24T14:55:44;5.20;99.90
42085;DHT22;27746;52.228;20.890;2022-12-24T14:58:23;5.10;99.90
42085;DHT22;27746;52.228;20.890;2022-12-24T15:00:52;5.10;99.90
42085;DHT22;27746;52.228;20.890;2022-12-24T15:03:23;5.00;99.90
42085;DHT22;27746;52.228;20.890;2022-12-24T15:05:52;5.10;99.90
42085;DHT22;27746;52.228;20.890;2022-12-24T15:08:25;5.00;99.90
42085;DHT22;27746;52.228;20.890;2022-12-24T15:10:54;5.00;99.90
42085;DHT22;27746;52.228;20.890;2022-12-24T15:13:29;5.00;99.90
42085;DHT22;27746;52.228;20.890;2022-12-24T15:15:58;5.00;99.90
42085;DHT22;27746;52.228;20.890;2022-12-24T15:18:28;4.90;99.90
42085;DHT22;27746;52.228;20.890;2022-12-24T15:20:59;4.90;99.90
42085;DHT22;27746;52.228;20.890;2022-12-24T15:23:28;4.90;99.90
42085;DHT22;27746;52.228;20.890;2022-12-24T15:26:15;4.90;99.90
42085;DHT22;27746;52.228;20.890;2022-12-24T15:28:44;4.90;99.90
42085;DHT22;27746;52.228;20.890;2022-12-24T15:31:13;4.90;99.90
42085;DHT22;27746;52.228;20.890;2022-12-24T15:33:43;4.80;99.90
42085;DHT22;27746;52.228;20.890;2022-12-24T15:36:13;4.80;99.90
42085;DHT22;27746;52.228;20.890;2022-12-24T15:38:42;4.80;99.90
42085;DHT22;27746;52.228;20.890;2022-12-24T15:41:15;4.70;99.90
42085;DHT22;27746;52.228;20.890;2022-12-24T15:43:43;4.70;99.90
42085;DHT22;27746;52.228;20.890;2022-12-24T15:46:18;4.70;99.90
42085;DHT22;27746;52.228;20.890;2022-12-24T15:48:47;4.70;99.90
42085;DHT22;27746;52.228;20.890;2022-12-24T15:51:21;4.60;99.90
42085;DHT22;27746;52.228;20.890;2022-12-24T15:53:53;4.60;99.90
42085;DHT22;27746;52.228;20.890;2022-12-24T15:56:27;4.60;99.90
42085;DHT22;27746;52.228;20.890;2022-12-24T15:59:11;4.50;99.90
42085;DHT22;27746;52.228;20.890;2022-12-24T16:01:38;4.50;99.90
42085;DHT22;27746;52.228;20.890;2022-12-24T16:04:12;4.50;99.90
42085;DHT22;27746;52.228;20.890;2022-12-24T16:06:54;4.50;99.90
42085;DHT22;27746;52.228;20.890;2022-12-24T16:09:41;4.50;99.90
42085;DHT22;27746;52.228;20.890;2022-12-24T16:12:14;4.60;99.90